Aérodrome :
LOGIN :

S'inscrire | Disclaimer

   EN    FR    IT 

 










Légende :    VFR   VFR Marginal   IFR   IFR Intensif   IFR Très Intensif
Visi : 
Plafond : 
>= 8 km
>= 3000ft
5 à 8 km
1000 à 3000 ft
1500m à 5 km
500 à 1000 ft
800 à 1500m
200 à 500 ft
< 800m
< 200 ft
Symboles :   Orages  Brouillard  Fortes neiges  Fortes précipitations  Vent > 20 kt
SIGMETs :   Divers  Orages  Givrage  Turbulence  Onde Orograph.  Cendres Volcan.







- Altitude de l'aérodrome : 1090 ft
- Code IATA : CFE
- Voir les cartes d'approche


LFLC - Clermont-Ferrand Auvergne

DERNIER METAR :
  • 280000Z AUTO 23005KT 180V310 9999 BKN038 OVC110 21/13 Q1015 NOSIG

METARs EXPIRÉS :
  • 272330Z AUTO 24003KT 180V280 9999 BKN036 OVC042 21/13 Q1015 NOSIG
  • 272300Z AUTO 26003KT 210V300 9999 OVC038 21/13 Q1015 NOSIG
  • 272230Z AUTO VRB03KT 9999 BKN040 21/13 Q1015 NOSIG
  • 272200Z AUTO 22006KT 170V240 9999 BKN042 BKN048 21/14 Q1014 NOSIG
  • 272130Z AUTO 21003KT 180V240 9999 BKN038 OVC047 22/14 Q1014 NOSIG

TAF TAF LFLC
Valide du 27 à 21h jusqu'au 28 à 21h UTC


272000Z 2721/2821 22008KT 9999 BKN040
TEMPO 2801/2809 VRB05KT
BECMG 2809/2811 07010KT
ATIS : +33 4 73 62 74 38
Pas de NOTAMs connus pour ce terrain.



MET'MAP, la Météo Aéronautique d'un coup d'oeil ! - Copyright ORBIFLY Décembre 2007 - Disclaimer

ORBIFLY MET'MAP TEAM :

Programmation & Développement : Alexandra Zaïnal
Conception & Développement : Baudouin d'Aumeries
Co-Programmation & Développement : Marc-Olivier Méhu
Soutien technique & logistique : Manuel Goepfert

Contact : metmap@orbifly.com




SOURCES & CREDITS :

   NOAA